Terminal Aerodrome Forecast
Issued by NWS

Home | Current Version | Previous Version | Text Only | Print | Product List | Glossary On
Versions: 1 2 3 4 5 6 7 8 9 10 11 12 13 14 15 16
000
FTUS42 KTBW 241411 AAA
TAFRSW
TAF AMD
KRSW 241411Z 2414/2512 VRB03KT P6SM SCT025 SCT150
      TEMPO 2414/2416 BKN025
     FM241800 16005KT P6SM VCTS BKN035CB
     FM242100 21005KT P6SM SCT025 BKN035
     FM250500 VRB03KT P6SM FEW070 SCT100=

USA.gov is the U.S. government's official web portal to all federal, state and local government web resources and services.